DLH425 KBOS-EDDM
Flight info
| Callsign | DLH425 |
|---|---|
| Flight time | N/A |
| Altitude | 37000 |
| Route | LBSTA DCT EBONY N381B ALLRY/M084F370 DCT 51N050W 53N040W 54N030W 54N020W DCT MALOT DCT GISTI/N0479F370 DCT LUPOR DCT WTD DCT ENJEX DCT ADHAV DCT AXNEF DCT ZIPWE DCT OZZIL DCT SAWPE Q63 CPT UL9 KONAN UL607 MATUG DCT MOVUM T109 HAREM T104 ROKIL ROKIL1B |
| Aircraft | A388/J-SADE2E3FGHIJ3J4J5M1RWXY/LB1D1 |
Departure
| Time | 2026-05-07 17:59 |
|---|---|
| Airport | Boston Logan International Airport (KBOS) |
Arrival
| Time | N/A |
|---|---|
| Airport | Munich Airport (EDDM) |
| Time | Latitude | Longitude | Altitude | Speed | Heading |
|---|---|---|---|---|---|
| 2026-05-07 17:14 | 42.37093 | -71.02150 | 31 ft | 0 kts | 148° |
| 2026-05-07 17:45 | 42.37111 | -71.02165 | 28 ft | 4 kts | 147° |
| 2026-05-07 17:46 | 42.37133 | -71.02186 | 28 ft | 4 kts | 140° |
| 2026-05-07 17:46 | 42.37150 | -71.02211 | 27 ft | 4 kts | 121° |
| 2026-05-07 17:46 | 42.37155 | -71.02232 | 28 ft | 4 kts | 80° |
| 2026-05-07 17:46 | 42.37154 | -71.02239 | 26 ft | 3 kts | 49° |
| 2026-05-07 17:47 | 42.37173 | -71.02214 | 30 ft | 4 kts | 40° |
| 2026-05-07 17:47 | 42.37193 | -71.02190 | 30 ft | 4 kts | 42° |
| 2026-05-07 17:47 | 42.37198 | -71.02184 | 30 ft | 0 kts | 43° |
| 2026-05-07 17:51 | 42.37207 | -71.02173 | 30 ft | 6 kts | 43° |
| 2026-05-07 17:51 | 42.37231 | -71.02131 | 30 ft | 10 kts | 68° |
| 2026-05-07 17:51 | 42.37235 | -71.02022 | 30 ft | 14 kts | 102° |
| 2026-05-07 17:51 | 42.37190 | -71.01891 | 30 ft | 17 kts | 122° |
| 2026-05-07 17:52 | 42.37121 | -71.01748 | 30 ft | 19 kts | 124° |
| 2026-05-07 17:52 | 42.37047 | -71.01622 | 30 ft | 11 kts | 140° |
| 2026-05-07 17:52 | 42.36983 | -71.01542 | 30 ft | 14 kts | 130° |
| 2026-05-07 17:52 | 42.36913 | -71.01436 | 30 ft | 16 kts | 134° |
| 2026-05-07 17:53 | 42.36829 | -71.01319 | 30 ft | 18 kts | 134° |
| 2026-05-07 17:53 | 42.36737 | -71.01244 | 30 ft | 15 kts | 177° |
| 2026-05-07 17:53 | 42.36633 | -71.01273 | 30 ft | 15 kts | 198° |
| 2026-05-07 17:53 | 42.36532 | -71.01328 | 30 ft | 16 kts | 205° |
| 2026-05-07 17:54 | 42.36439 | -71.01385 | 30 ft | 11 kts | 203° |
| 2026-05-07 17:54 | 42.36390 | -71.01402 | 30 ft | 6 kts | 164° |
| 2026-05-07 17:54 | 42.36352 | -71.01358 | 30 ft | 9 kts | 122° |
| 2026-05-07 17:54 | 42.36308 | -71.01260 | 30 ft | 15 kts | 120° |
| 2026-05-07 17:55 | 42.36250 | -71.01117 | 30 ft | 20 kts | 115° |
| 2026-05-07 17:55 | 42.36189 | -71.00937 | 30 ft | 22 kts | 114° |
| 2026-05-07 17:55 | 42.36125 | -71.00736 | 31 ft | 24 kts | 110° |
| 2026-05-07 17:55 | 42.36069 | -71.00515 | 30 ft | 26 kts | 108° |
| 2026-05-07 17:56 | 42.36010 | -71.00279 | 30 ft | 27 kts | 109° |
| 2026-05-07 17:56 | 42.35942 | -71.00070 | 30 ft | 24 kts | 128° |
| 2026-05-07 17:56 | 42.35824 | -70.99906 | 30 ft | 24 kts | 136° |
| 2026-05-07 17:56 | 42.35702 | -70.99744 | 30 ft | 25 kts | 135° |
| 2026-05-07 17:57 | 42.35583 | -70.99583 | 30 ft | 19 kts | 135° |
| 2026-05-07 17:57 | 42.35501 | -70.99473 | 30 ft | 12 kts | 125° |
| 2026-05-07 17:57 | 42.35493 | -70.99354 | 30 ft | 15 kts | 76° |
| 2026-05-07 17:57 | 42.35519 | -70.99270 | 30 ft | 4 kts | 32° |
| 2026-05-07 17:58 | 42.35533 | -70.99267 | 30 ft | 3 kts | 345° |
| 2026-05-07 17:58 | 42.35603 | -70.99348 | 30 ft | 29 kts | 314° |
| 2026-05-07 17:58 | 42.35948 | -70.99812 | 30 ft | 107 kts | 316° |
| 2026-05-07 17:58 | 42.36616 | -71.00714 | 32 ft | 158 kts | 314° |
| 2026-05-07 17:59 | 42.37440 | -71.01808 | 380 ft | 169 kts | 312° |
| 2026-05-07 17:59 | 42.38259 | -71.02893 | 1005 ft | 163 kts | 313° |
| 2026-05-07 17:59 | 42.38978 | -71.04014 | 1642 ft | 158 kts | 300° |
| 2026-05-07 17:59 | 42.39512 | -71.05364 | 2032 ft | 171 kts | 297° |
| 2026-05-07 18:00 | 42.40083 | -71.06856 | 2259 ft | 186 kts | 297° |
| 2026-05-07 18:00 | 42.40740 | -71.08502 | 2548 ft | 210 kts | 302° |
| 2026-05-07 18:00 | 42.41779 | -71.10039 | 2847 ft | 236 kts | 323° |
| 2026-05-07 18:00 | 42.43306 | -71.11025 | 3463 ft | 248 kts | 338° |
| 2026-05-07 18:01 | 42.44927 | -71.11846 | 4301 ft | 248 kts | 336° |
| 2026-05-07 18:01 | 42.46535 | -71.12711 | 5151 ft | 249 kts | 335° |
| 2026-05-07 18:01 | 42.48157 | -71.13603 | 5943 ft | 253 kts | 335° |
| 2026-05-07 18:01 | 42.49888 | -71.14151 | 6616 ft | 264 kts | 357° |
| 2026-05-07 18:02 | 42.53257 | -71.11840 | 7924 ft | 302 kts | 45° |
| 2026-05-07 18:02 | 42.54542 | -71.09515 | 8544 ft | 313 kts | 51° |
| 2026-05-07 18:02 | 42.55782 | -71.07030 | 9177 ft | 322 kts | 51° |
| 2026-05-07 18:03 | 42.57060 | -71.04488 | 9779 ft | 330 kts | 50° |
| 2026-05-07 18:03 | 42.58397 | -71.01908 | 10274 ft | 341 kts | 50° |
| 2026-05-07 18:03 | 42.59825 | -70.99215 | 10467 ft | 361 kts | 50° |